sensor_id;sensor_type;location;lat;lon;timestamp;pressure;altitude;pressure_sealevel;temperature;humidity
70053;BME280;57398;52.032;4.376;2023-04-15T00:02:34;101201.72;;;8.36;100.00
70053;BME280;57398;52.032;4.376;2023-04-15T00:05:23;101205.31;;;8.35;100.00
70053;BME280;57398;52.032;4.376;2023-04-15T00:08:11;101203.31;;;8.37;100.00
70053;BME280;57398;52.032;4.376;2023-04-15T00:11:01;101197.78;;;8.41;100.00
70053;BME280;57398;52.032;4.376;2023-04-15T00:13:51;101201.53;;;8.38;100.00
70053;BME280;57398;52.032;4.376;2023-04-15T00:16:40;101194.16;;;8.35;100.00
70053;BME280;57398;52.032;4.376;2023-04-15T00:19:28;101198.72;;;8.33;100.00
70053;BME280;57398;52.032;4.376;2023-04-15T00:22:16;101186.38;;;8.35;100.00
70053;BME280;57398;52.032;4.376;2023-04-15T00:25:05;101188.38;;;8.33;100.00
70053;BME280;57398;52.032;4.376;2023-04-15T00:27:54;101183.97;;;8.33;100.00
70053;BME280;57398;52.032;4.376;2023-04-15T00:30:43;101186.19;;;8.30;100.00
70053;BME280;57398;52.032;4.376;2023-04-15T00:33:31;101183.38;;;8.25;100.00
70053;BME280;57398;52.032;4.376;2023-04-15T00:36:19;101198.50;;;8.28;100.00
70053;BME280;57398;52.032;4.376;2023-04-15T00:39:07;101185.53;;;8.21;100.00
70053;BME280;57398;52.032;4.376;2023-04-15T00:41:56;101191.13;;;8.18;100.00
70053;BME280;57398;52.032;4.376;2023-04-15T00:44:46;101181.75;;;8.17;100.00
70053;BME280;57398;52.032;4.376;2023-04-15T00:47:35;101178.38;;;8.16;100.00
70053;BME280;57398;52.032;4.376;2023-04-15T00:50:24;101185.34;;;8.16;100.00
70053;BME280;57398;52.032;4.376;2023-04-15T00:53:12;101175.59;;;8.18;100.00
70053;BME280;57398;52.032;4.376;2023-04-15T00:56:00;101183.72;;;8.15;100.00
70053;BME280;57398;52.032;4.376;2023-04-15T00:58:50;101181.09;;;8.08;100.00
70053;BME280;57398;52.032;4.376;2023-04-15T01:01:39;101187.47;;;8.06;100.00
70053;BME280;57398;52.032;4.376;2023-04-15T01:04:29;101180.88;;;8.03;100.00
70053;BME280;57398;52.032;4.376;2023-04-15T01:07:18;101183.44;;;7.96;100.00
70053;BME280;57398;52.032;4.376;2023-04-15T01:10:07;101191.78;;;7.92;100.00
70053;BME280;57398;52.032;4.376;2023-04-15T01:12:55;101190.81;;;7.93;100.00
70053;BME280;57398;52.032;4.376;2023-04-15T01:15:43;101186.81;;;7.97;100.00
70053;BME280;57398;52.032;4.376;2023-04-15T01:18:34;101184.81;;;7.92;100.00
70053;BME280;57398;52.032;4.376;2023-04-15T01:21:23;101193.34;;;7.86;100.00
70053;BME280;57398;52.032;4.376;2023-04-15T01:24:12;101198.09;;;7.83;100.00
70053;BME280;57398;52.032;4.376;2023-04-15T01:27:05;101187.16;;;7.81;100.00
70053;BME280;57398;52.032;4.376;2023-04-15T01:29:54;101191.13;;;7.76;100.00
70053;BME280;57398;52.032;4.376;2023-04-15T01:32:43;101194.50;;;7.77;100.00
70053;BME280;57398;52.032;4.376;2023-04-15T01:35:32;101185.97;;;7.76;100.00
70053;BME280;57398;52.032;4.376;2023-04-15T01:38:20;101181.75;;;7.75;100.00
70053;BME280;57398;52.032;4.376;2023-04-15T01:41:08;101184.72;;;7.72;100.00
70053;BME280;57398;52.032;4.376;2023-04-15T01:43:58;101193.41;;;7.65;100.00
70053;BME280;57398;52.032;4.376;2023-04-15T01:46:47;101197.56;;;7.59;100.00
70053;BME280;57398;52.032;4.376;2023-04-15T01:49:36;101204.84;;;7.49;100.00
70053;BME280;57398;52.032;4.376;2023-04-15T01:52:24;101209.03;;;7.50;100.00
70053;BME280;57398;52.032;4.376;2023-04-15T01:55:12;101211.16;;;7.40;100.00
70053;BME280;57398;52.032;4.376;2023-04-15T01:58:00;101230.00;;;7.33;100.00
70053;BME280;57398;52.032;4.376;2023-04-15T02:00:50;101230.19;;;7.32;100.00
70053;BME280;57398;52.032;4.376;2023-04-15T02:03:38;101228.03;;;7.36;100.00
70053;BME280;57398;52.032;4.376;2023-04-15T02:06:26;101228.84;;;7.36;100.00
70053;BME280;57398;52.032;4.376;2023-04-15T02:09:15;101229.63;;;7.37;100.00
70053;BME280;57398;52.032;4.376;2023-04-15T02:12:03;101222.66;;;7.37;100.00
70053;BME280;57398;52.032;4.376;2023-04-15T02:14:51;101230.25;;;7.39;100.00
70053;BME280;57398;52.032;4.376;2023-04-15T02:17:41;101233.63;;;7.39;100.00
70053;BME280;57398;52.032;4.376;2023-04-15T02:20:32;101235.88;;;7.49;100.00
70053;BME280;57398;52.032;4.376;2023-04-15T02:23:20;101237.66;;;7.48;100.00
70053;BME280;57398;52.032;4.376;2023-04-15T02:26:09;101236.47;;;7.51;100.00
70053;BME280;57398;52.032;4.376;2023-04-15T02:28:57;101243.63;;;7.49;100.00
70053;BME280;57398;52.032;4.376;2023-04-15T02:31:46;101250.53;;;7.42;100.00
70053;BME280;57398;52.032;4.376;2023-04-15T02:34:36;101260.63;;;7.37;100.00
70053;BME280;57398;52.032;4.376;2023-04-15T02:37:27;101265.63;;;7.38;100.00
70053;BME280;57398;52.032;4.376;2023-04-15T02:40:17;101269.78;;;7.39;100.00
70053;BME280;57398;52.032;4.376;2023-04-15T02:43:05;101271.22;;;7.42;100.00
70053;BME280;57398;52.032;4.376;2023-04-15T02:45:54;101275.97;;;7.38;100.00
70053;BME280;57398;52.032;4.376;2023-04-15T02:48:42;101277.44;;;7.26;100.00
70053;BME280;57398;52.032;4.376;2023-04-15T02:51:32;101308.53;;;6.96;100.00
70053;BME280;57398;52.032;4.376;2023-04-15T02:54:21;101332.72;;;6.74;100.00
70053;BME280;57398;52.032;4.376;2023-04-15T02:57:09;101360.41;;;6.65;100.00
70053;BME280;57398;52.032;4.376;2023-04-15T02:59:58;101382.03;;;6.64;100.00
70053;BME280;57398;52.032;4.376;2023-04-15T03:02:46;101387.13;;;6.57;100.00
70053;BME280;57398;52.032;4.376;2023-04-15T03:05:38;101397.44;;;6.57;100.00
70053;BME280;57398;52.032;4.376;2023-04-15T03:08:28;101396.66;;;6.57;100.00
70053;BME280;57398;52.032;4.376;2023-04-15T03:11:16;101408.22;;;6.61;100.00
70053;BME280;57398;52.032;4.376;2023-04-15T03:14:05;101409.22;;;6.60;100.00
70053;BME280;57398;52.032;4.376;2023-04-15T03:16:53;101416.84;;;6.53;100.00
70053;BME280;57398;52.032;4.376;2023-04-15T03:19:43;101426.47;;;6.44;100.00
70053;BME280;57398;52.032;4.376;2023-04-15T03:22:31;101435.53;;;6.40;100.00
70053;BME280;57398;52.032;4.376;2023-04-15T03:25:20;101448.69;;;6.31;100.00
70053;BME280;57398;52.032;4.376;2023-04-15T03:28:08;101451.78;;;6.26;100.00
70053;BME280;57398;52.032;4.376;2023-04-15T03:30:57;101463.88;;;6.25;100.00
70053;BME280;57398;52.032;4.376;2023-04-15T03:33:45;101475.31;;;6.23;100.00
70053;BME280;57398;52.032;4.376;2023-04-15T03:36:33;101488.31;;;6.15;100.00
70053;BME280;57398;52.032;4.376;2023-04-15T03:39:21;101489.97;;;6.07;100.00
70053;BME280;57398;52.032;4.376;2023-04-15T03:42:15;101502.75;;;6.01;100.00
70053;BME280;57398;52.032;4.376;2023-04-15T03:45:10;101506.66;;;5.88;100.00
70053;BME280;57398;52.032;4.376;2023-04-15T03:47:58;101513.94;;;5.85;100.00
70053;BME280;57398;52.032;4.376;2023-04-15T03:51:02;101530.34;;;5.84;100.00
70053;BME280;57398;52.032;4.376;2023-04-15T03:53:51;101543.75;;;5.79;100.00
70053;BME280;57398;52.032;4.376;2023-04-15T03:56:39;101543.75;;;5.79;100.00
70053;BME280;57398;52.032;4.376;2023-04-15T03:59:29;101549.13;;;5.70;100.00
70053;BME280;57398;52.032;4.376;2023-04-15T04:02:17;101551.06;;;5.67;100.00
70053;BME280;57398;52.032;4.376;2023-04-15T04:05:05;101558.66;;;5.61;100.00
70053;BME280;57398;52.032;4.376;2023-04-15T04:07:54;101564.50;;;5.55;100.00
70053;BME280;57398;52.032;4.376;2023-04-15T04:10:42;101578.84;;;5.57;100.00
70053;BME280;57398;52.032;4.376;2023-04-15T04:13:30;101580.09;;;5.61;100.00
70053;BME280;57398;52.032;4.376;2023-04-15T04:16:20;101588.13;;;5.66;100.00
70053;BME280;57398;52.032;4.376;2023-04-15T04:19:08;101596.38;;;5.62;100.00
70053;BME280;57398;52.032;4.376;2023-04-15T04:21:56;101595.59;;;5.53;100.00
70053;BME280;57398;52.032;4.376;2023-04-15T04:24:44;101604.47;;;5.51;100.00
70053;BME280;57398;52.032;4.376;2023-04-15T04:27:32;101615.22;;;5.54;100.00
70053;BME280;57398;52.032;4.376;2023-04-15T04:30:20;101610.91;;;5.55;100.00
70053;BME280;57398;52.032;4.376;2023-04-15T04:33:10;101625.88;;;5.51;100.00
70053;BME280;57398;52.032;4.376;2023-04-15T04:35:58;101623.13;;;5.53;100.00
70053;BME280;57398;52.032;4.376;2023-04-15T04:38:47;101634.41;;;5.52;100.00
70053;BME280;57398;52.032;4.376;2023-04-15T04:41:35;101646.03;;;5.48;100.00
70053;BME280;57398;52.032;4.376;2023-04-15T04:44:25;101655.34;;;5.40;100.00
70053;BME280;57398;52.032;4.376;2023-04-15T04:47:13;101661.50;;;5.39;100.00
70053;BME280;57398;52.032;4.376;2023-04-15T04:50:03;101667.94;;;5.35;100.00
70053;BME280;57398;52.032;4.376;2023-04-15T04:52:51;101684.84;;;5.30;100.00
70053;BME280;57398;52.032;4.376;2023-04-15T04:55:42;101689.84;;;5.23;100.00
70053;BME280;57398;52.032;4.376;2023-04-15T04:58:31;101701.28;;;5.20;100.00
70053;BME280;57398;52.032;4.376;2023-04-15T05:01:19;101710.28;;;5.16;100.00
70053;BME280;57398;52.032;4.376;2023-04-15T05:04:07;101715.44;;;5.16;100.00
70053;BME280;57398;52.032;4.376;2023-04-15T05:06:57;101719.16;;;5.14;100.00
70053;BME280;57398;52.032;4.376;2023-04-15T05:09:46;101730.41;;;5.13;100.00
70053;BME280;57398;52.032;4.376;2023-04-15T05:12:34;101732.03;;;5.14;100.00
70053;BME280;57398;52.032;4.376;2023-04-15T05:15:23;101727.66;;;5.14;100.00
70053;BME280;57398;52.032;4.376;2023-04-15T05:18:11;101733.31;;;5.10;100.00
70053;BME280;57398;52.032;4.376;2023-04-15T05:20:59;101750.69;;;5.16;100.00
70053;BME280;57398;52.032;4.376;2023-04-15T05:23:49;101765.19;;;5.17;100.00
70053;BME280;57398;52.032;4.376;2023-04-15T05:26:37;101762.28;;;5.20;100.00
70053;BME280;57398;52.032;4.376;2023-04-15T05:29:25;101775.00;;;5.21;100.00
70053;BME280;57398;52.032;4.376;2023-04-15T05:32:13;101785.16;;;5.23;100.00
70053;BME280;57398;52.032;4.376;2023-04-15T05:35:01;101793.34;;;5.27;100.00
70053;BME280;57398;52.032;4.376;2023-04-15T05:37:50;101811.22;;;5.28;100.00
70053;BME280;57398;52.032;4.376;2023-04-15T05:40:43;101824.44;;;5.33;100.00
70053;BME280;57398;52.032;4.376;2023-04-15T05:43:31;101827.97;;;5.40;100.00
70053;BME280;57398;52.032;4.376;2023-04-15T05:46:22;101840.75;;;5.50;100.00
70053;BME280;57398;52.032;4.376;2023-04-15T05:49:10;101846.06;;;5.57;100.00
70053;BME280;57398;52.032;4.376;2023-04-15T05:52:01;101854.09;;;5.70;100.00
70053;BME280;57398;52.032;4.376;2023-04-15T05:54:51;101853.00;;;5.81;100.00
70053;BME280;57398;52.032;4.376;2023-04-15T05:57:41;101850.56;;;5.87;100.00
70053;BME280;57398;52.032;4.376;2023-04-15T06:00:35;101855.41;;;5.91;100.00
70053;BME280;57398;52.032;4.376;2023-04-15T06:03:23;101861.38;;;5.99;100.00
70053;BME280;57398;52.032;4.376;2023-04-15T06:06:12;101862.03;;;6.01;100.00
70053;BME280;57398;52.032;4.376;2023-04-15T06:09:01;101867.19;;;6.10;100.00
70053;BME280;57398;52.032;4.376;2023-04-15T06:11:50;101871.69;;;6.16;100.00
70053;BME280;57398;52.032;4.376;2023-04-15T06:14:40;101873.28;;;6.25;100.00
70053;BME280;57398;52.032;4.376;2023-04-15T06:17:28;101874.56;;;6.29;100.00
70053;BME280;57398;52.032;4.376;2023-04-15T06:20:17;101878.91;;;6.37;100.00
70053;BME280;57398;52.032;4.376;2023-04-15T06:23:06;101881.31;;;6.46;100.00
70053;BME280;57398;52.032;4.376;2023-04-15T06:25:54;101885.31;;;6.57;100.00
70053;BME280;57398;52.032;4.376;2023-04-15T06:28:43;101875.81;;;6.58;100.00
70053;BME280;57398;52.032;4.376;2023-04-15T06:31:33;101885.47;;;6.64;100.00
70053;BME280;57398;52.032;4.376;2023-04-15T06:34:30;101890.13;;;6.68;100.00
70053;BME280;57398;52.032;4.376;2023-04-15T06:37:18;101896.72;;;6.71;100.00
70053;BME280;57398;52.032;4.376;2023-04-15T06:40:08;101901.09;;;6.79;100.00
70053;BME280;57398;52.032;4.376;2023-04-15T06:42:58;101894.75;;;6.89;100.00
70053;BME280;57398;52.032;4.376;2023-04-15T06:45:50;101899.28;;;6.87;100.00
70053;BME280;57398;52.032;4.376;2023-04-15T06:48:40;101901.31;;;7.00;100.00
70053;BME280;57398;52.032;4.376;2023-04-15T06:51:29;101900.50;;;7.08;100.00
70053;BME280;57398;52.032;4.376;2023-04-15T06:54:17;101909.63;;;7.19;100.00
70053;BME280;57398;52.032;4.376;2023-04-15T06:57:05;101906.88;;;7.20;100.00
70053;BME280;57398;52.032;4.376;2023-04-15T06:59:57;101908.09;;;7.32;100.00
70053;BME280;57398;52.032;4.376;2023-04-15T07:02:46;101903.03;;;7.47;100.00
70053;BME280;57398;52.032;4.376;2023-04-15T07:05:36;101901.69;;;7.51;100.00
70053;BME280;57398;52.032;4.376;2023-04-15T07:08:25;101905.97;;;7.67;100.00
70053;BME280;57398;52.032;4.376;2023-04-15T07:11:13;101904.56;;;7.80;100.00
70053;BME280;57398;52.032;4.376;2023-04-15T07:14:02;101903.00;;;7.93;100.00
70053;BME280;57398;52.032;4.376;2023-04-15T07:16:50;101908.72;;;8.04;100.00
70053;BME280;57398;52.032;4.376;2023-04-15T07:19:41;101892.69;;;8.08;100.00
70053;BME280;57398;52.032;4.376;2023-04-15T07:22:32;101894.31;;;8.24;100.00
70053;BME280;57398;52.032;4.376;2023-04-15T07:25:20;101892.44;;;8.41;100.00
70053;BME280;57398;52.032;4.376;2023-04-15T07:28:08;101885.44;;;8.56;100.00
70053;BME280;57398;52.032;4.376;2023-04-15T07:31:00;101889.13;;;8.62;100.00
70053;BME280;57398;52.032;4.376;2023-04-15T07:33:50;101900.66;;;8.59;100.00
70053;BME280;57398;52.032;4.376;2023-04-15T07:36:39;101885.81;;;8.53;100.00
70053;BME280;57398;52.032;4.376;2023-04-15T07:39:28;101879.47;;;8.71;100.00
70053;BME280;57398;52.032;4.376;2023-04-15T07:42:24;101879.72;;;8.76;100.00
70053;BME280;57398;52.032;4.376;2023-04-15T07:45:15;101892.69;;;8.76;100.00
70053;BME280;57398;52.032;4.376;2023-04-15T07:48:05;101889.72;;;8.79;100.00
70053;BME280;57398;52.032;4.376;2023-04-15T07:50:54;101887.75;;;8.81;100.00
70053;BME280;57398;52.032;4.376;2023-04-15T07:53:42;101898.03;;;8.89;100.00
70053;BME280;57398;52.032;4.376;2023-04-15T07:56:32;101902.22;;;8.90;100.00
70053;BME280;57398;52.032;4.376;2023-04-15T07:59:21;101907.06;;;8.93;100.00
70053;BME280;57398;52.032;4.376;2023-04-15T08:02:10;101914.47;;;8.96;100.00
70053;BME280;57398;52.032;4.376;2023-04-15T08:05:02;101920.69;;;9.17;100.00
70053;BME280;57398;52.032;4.376;2023-04-15T08:07:50;101920.31;;;9.20;100.00
70053;BME280;57398;52.032;4.376;2023-04-15T08:10:39;101922.81;;;9.28;100.00
70053;BME280;57398;52.032;4.376;2023-04-15T08:13:31;101930.94;;;9.25;100.00
70053;BME280;57398;52.032;4.376;2023-04-15T08:16:21;101942.72;;;9.28;100.00
70053;BME280;57398;52.032;4.376;2023-04-15T08:19:16;101941.66;;;9.37;100.00
70053;BME280;57398;52.032;4.376;2023-04-15T08:22:04;101944.31;;;9.43;100.00
70053;BME280;57398;52.032;4.376;2023-04-15T08:25:04;101939.63;;;9.54;100.00
70053;BME280;57398;52.032;4.376;2023-04-15T08:27:54;101943.56;;;9.64;100.00
70053;BME280;57398;52.032;4.376;2023-04-15T08:30:58;101960.13;;;9.85;100.00
70053;BME280;57398;52.032;4.376;2023-04-15T08:33:46;101954.28;;;10.04;100.00
70053;BME280;57398;52.032;4.376;2023-04-15T08:36:34;101936.09;;;10.04;100.00
70053;BME280;57398;52.032;4.376;2023-04-15T08:39:23;101926.28;;;10.00;100.00
70053;BME280;57398;52.032;4.376;2023-04-15T08:42:15;101902.72;;;10.93;100.00
70053;BME280;57398;52.032;4.376;2023-04-15T08:45:05;101855.66;;;11.82;100.00
70053;BME280;57398;52.032;4.376;2023-04-15T08:47:59;101836.84;;;12.65;100.00
70053;BME280;57398;52.032;4.376;2023-04-15T08:50:50;101802.44;;;12.43;100.00
70053;BME280;57398;52.032;4.376;2023-04-15T08:53:39;101810.50;;;13.12;100.00
70053;BME280;57398;52.032;4.376;2023-04-15T08:56:30;101799.56;;;12.96;100.00
70053;BME280;57398;52.032;4.376;2023-04-15T08:59:20;101813.72;;;12.30;100.00
70053;BME280;57398;52.032;4.376;2023-04-15T09:02:08;101812.75;;;12.70;100.00
70053;BME280;57398;52.032;4.376;2023-04-15T09:04:57;101800.00;;;13.50;100.00
70053;BME280;57398;52.032;4.376;2023-04-15T09:07:46;101793.66;;;13.83;100.00
70053;BME280;57398;52.032;4.376;2023-04-15T09:10:34;101788.34;;;13.21;100.00
70053;BME280;57398;52.032;4.376;2023-04-15T09:13:22;101798.44;;;13.17;100.00
70053;BME280;57398;52.032;4.376;2023-04-15T09:16:12;101810.06;;;12.45;100.00
70053;BME280;57398;52.032;4.376;2023-04-15T09:19:19;101814.88;;;12.34;100.00
70053;BME280;57398;52.032;4.376;2023-04-15T09:22:09;101817.13;;;12.76;100.00
70053;BME280;57398;52.032;4.376;2023-04-15T09:25:00;101806.22;;;13.24;100.00
70053;BME280;57398;52.032;4.376;2023-04-15T09:27:51;101801.59;;;13.51;100.00
70053;BME280;57398;52.032;4.376;2023-04-15T09:30:43;101800.09;;;13.37;100.00
70053;BME280;57398;52.032;4.376;2023-04-15T09:33:53;101810.16;;;13.02;100.00
70053;BME280;57398;52.032;4.376;2023-04-15T09:36:52;101802.34;;;13.33;100.00
70053;BME280;57398;52.032;4.376;2023-04-15T09:39:52;101796.66;;;13.11;100.00
70053;BME280;57398;52.032;4.376;2023-04-15T09:42:54;101802.47;;;13.13;100.00
70053;BME280;57398;52.032;4.376;2023-04-15T09:45:47;101803.81;;;13.73;100.00
70053;BME280;57398;52.032;4.376;2023-04-15T09:48:35;101793.69;;;14.01;100.00
70053;BME280;57398;52.032;4.376;2023-04-15T09:51:35;101816.41;;;13.32;100.00
70053;BME280;57398;52.032;4.376;2023-04-15T09:54:23;101818.75;;;13.40;100.00
70053;BME280;57398;52.032;4.376;2023-04-15T09:57:13;101820.81;;;13.32;100.00
70053;BME280;57398;52.032;4.376;2023-04-15T10:00:02;101802.66;;;13.69;100.00
70053;BME280;57398;52.032;4.376;2023-04-15T10:02:51;101815.16;;;14.03;100.00
70053;BME280;57398;52.032;4.376;2023-04-15T10:05:41;101809.22;;;14.15;100.00
70053;BME280;57398;52.032;4.376;2023-04-15T10:08:31;101833.25;;;13.36;100.00
70053;BME280;57398;52.032;4.376;2023-04-15T10:11:21;101833.53;;;12.83;100.00
70053;BME280;57398;52.032;4.376;2023-04-15T10:14:13;101827.19;;;12.66;100.00
70053;BME280;57398;52.032;4.376;2023-04-15T10:17:04;101819.50;;;13.16;100.00
70053;BME280;57398;52.032;4.376;2023-04-15T10:19:53;101831.66;;;13.35;100.00
70053;BME280;57398;52.032;4.376;2023-04-15T10:22:44;101812.63;;;12.96;100.00
70053;BME280;57398;52.032;4.376;2023-04-15T10:25:33;101819.91;;;13.19;100.00
70053;BME280;57398;52.032;4.376;2023-04-15T10:28:22;101830.72;;;12.85;100.00
70053;BME280;57398;52.032;4.376;2023-04-15T10:31:15;101834.94;;;12.86;100.00
70053;BME280;57398;52.032;4.376;2023-04-15T10:34:06;101836.94;;;13.22;100.00
70053;BME280;57398;52.032;4.376;2023-04-15T10:36:55;101825.72;;;12.83;100.00
70053;BME280;57398;52.032;4.376;2023-04-15T10:39:44;101820.38;;;12.71;100.00
70053;BME280;57398;52.032;4.376;2023-04-15T10:42:36;101814.97;;;12.66;100.00
70053;BME280;57398;52.032;4.376;2023-04-15T10:45:27;101822.19;;;12.64;100.00
70053;BME280;57398;52.032;4.376;2023-04-15T10:48:17;101819.94;;;12.74;100.00
70053;BME280;57398;52.032;4.376;2023-04-15T10:51:08;101823.88;;;12.90;100.00
70053;BME280;57398;52.032;4.376;2023-04-15T10:53:58;101821.56;;;12.69;100.00
70053;BME280;57398;52.032;4.376;2023-04-15T10:56:50;101832.66;;;12.96;100.00
70053;BME280;57398;52.032;4.376;2023-04-15T10:59:59;101834.59;;;12.69;100.00
70053;BME280;57398;52.032;4.376;2023-04-15T11:02:51;101828.38;;;12.76;100.00
70053;BME280;57398;52.032;4.376;2023-04-15T11:05:51;101833.09;;;13.31;100.00
70053;BME280;57398;52.032;4.376;2023-04-15T11:08:53;101833.72;;;13.20;100.00
70053;BME280;57398;52.032;4.376;2023-04-15T11:12:04;101832.81;;;13.65;100.00
70053;BME280;57398;52.032;4.376;2023-04-15T11:14:52;101846.56;;;13.97;100.00
70053;BME280;57398;52.032;4.376;2023-04-15T11:17:40;101857.88;;;13.72;100.00
70053;BME280;57398;52.032;4.376;2023-04-15T11:20:32;101846.34;;;13.55;100.00
70053;BME280;57398;52.032;4.376;2023-04-15T11:23:30;101864.75;;;13.35;100.00
70053;BME280;57398;52.032;4.376;2023-04-15T11:26:24;101864.81;;;13.21;100.00
70053;BME280;57398;52.032;4.376;2023-04-15T11:29:16;101861.47;;;13.46;100.00
70053;BME280;57398;52.032;4.376;2023-04-15T11:32:05;101858.66;;;13.48;100.00
70053;BME280;57398;52.032;4.376;2023-04-15T11:34:54;101870.47;;;13.50;100.00
70053;BME280;57398;52.032;4.376;2023-04-15T11:37:42;101885.31;;;13.56;100.00
70053;BME280;57398;52.032;4.376;2023-04-15T11:40:32;101905.50;;;13.68;100.00
70053;BME280;57398;52.032;4.376;2023-04-15T11:43:22;101938.66;;;12.77;100.00
70053;BME280;57398;52.032;4.376;2023-04-15T11:46:11;101968.63;;;12.28;100.00
70053;BME280;57398;52.032;4.376;2023-04-15T11:48:59;101975.78;;;12.66;100.00
70053;BME280;57398;52.032;4.376;2023-04-15T11:51:53;101979.06;;;13.13;100.00
70053;BME280;57398;52.032;4.376;2023-04-15T11:54:41;101984.09;;;13.08;100.00
70053;BME280;57398;52.032;4.376;2023-04-15T11:57:31;102004.22;;;13.46;100.00
70053;BME280;57398;52.032;4.376;2023-04-15T12:00:21;102001.59;;;12.94;100.00
70053;BME280;57398;52.032;4.376;2023-04-15T12:03:28;102011.66;;;12.77;100.00
70053;BME280;57398;52.032;4.376;2023-04-15T12:06:19;102025.75;;;12.49;100.00
70053;BME280;57398;52.032;4.376;2023-04-15T12:09:09;102028.53;;;12.74;100.00
70053;BME280;57398;52.032;4.376;2023-04-15T12:11:58;102025.13;;;12.54;100.00
70053;BME280;57398;52.032;4.376;2023-04-15T12:14:50;102025.91;;;12.81;100.00
70053;BME280;57398;52.032;4.376;2023-04-15T12:17:42;102010.69;;;12.38;100.00
70053;BME280;57398;52.032;4.376;2023-04-15T12:20:43;102026.34;;;12.45;100.00
70053;BME280;57398;52.032;4.376;2023-04-15T12:23:31;102023.72;;;12.31;100.00
70053;BME280;57398;52.032;4.376;2023-04-15T12:26:27;102039.75;;;12.62;100.00
70053;BME280;57398;52.032;4.376;2023-04-15T12:29:16;102047.97;;;12.39;100.00
70053;BME280;57398;52.032;4.376;2023-04-15T12:32:09;102063.41;;;12.33;100.00
70053;BME280;57398;52.032;4.376;2023-04-15T12:34:57;102054.97;;;12.18;100.00
70053;BME280;57398;52.032;4.376;2023-04-15T12:37:45;102067.81;;;12.13;100.00
70053;BME280;57398;52.032;4.376;2023-04-15T12:40:34;102103.31;;;12.61;100.00
70053;BME280;57398;52.032;4.376;2023-04-15T12:43:22;102094.66;;;12.27;100.00
70053;BME280;57398;52.032;4.376;2023-04-15T12:46:10;102121.09;;;12.10;100.00
70053;BME280;57398;52.032;4.376;2023-04-15T12:49:00;102099.63;;;12.02;100.00
70053;BME280;57398;52.032;4.376;2023-04-15T12:51:50;102116.31;;;12.27;100.00
70053;BME280;57398;52.032;4.376;2023-04-15T12:54:38;102104.69;;;12.17;100.00
70053;BME280;57398;52.032;4.376;2023-04-15T12:57:26;102113.13;;;12.32;100.00
70053;BME280;57398;52.032;4.376;2023-04-15T13:00:15;102127.31;;;12.23;100.00
70053;BME280;57398;52.032;4.376;2023-04-15T13:03:03;102116.91;;;12.29;100.00
70053;BME280;57398;52.032;4.376;2023-04-15T13:05:54;102145.34;;;12.18;100.00
70053;BME280;57398;52.032;4.376;2023-04-15T13:08:43;102127.97;;;12.45;100.00
70053;BME280;57398;52.032;4.376;2023-04-15T13:11:44;102131.25;;;11.92;100.00
70053;BME280;57398;52.032;4.376;2023-04-15T13:14:33;102134.34;;;12.22;100.00
70053;BME280;57398;52.032;4.376;2023-04-15T13:17:21;102141.13;;;12.10;100.00
70053;BME280;57398;52.032;4.376;2023-04-15T13:20:10;102151.31;;;12.05;100.00
70053;BME280;57398;52.032;4.376;2023-04-15T13:22:59;102144.97;;;11.79;100.00
70053;BME280;57398;52.032;4.376;2023-04-15T13:25:47;102164.72;;;11.95;100.00
70053;BME280;57398;52.032;4.376;2023-04-15T13:28:36;102160.59;;;11.79;100.00
70053;BME280;57398;52.032;4.376;2023-04-15T13:31:27;102180.03;;;12.25;100.00
70053;BME280;57398;52.032;4.376;2023-04-15T13:34:15;102179.84;;;12.26;100.00
70053;BME280;57398;52.032;4.376;2023-04-15T13:37:05;102184.06;;;12.34;100.00
70053;BME280;57398;52.032;4.376;2023-04-15T13:39:55;102175.59;;;12.12;100.00
70053;BME280;57398;52.032;4.376;2023-04-15T13:42:54;102176.84;;;12.29;100.00
70053;BME280;57398;52.032;4.376;2023-04-15T13:45:45;102162.84;;;12.44;100.00
70053;BME280;57398;52.032;4.376;2023-04-15T13:48:33;102168.19;;;12.15;100.00
70053;BME280;57398;52.032;4.376;2023-04-15T13:51:21;102181.53;;;12.54;100.00
70053;BME280;57398;52.032;4.376;2023-04-15T13:54:10;102178.44;;;12.24;100.00
70053;BME280;57398;52.032;4.376;2023-04-15T13:56:59;102189.44;;;12.12;100.00
70053;BME280;57398;52.032;4.376;2023-04-15T13:59:47;102201.44;;;12.13;100.00
70053;BME280;57398;52.032;4.376;2023-04-15T14:02:36;102188.22;;;11.73;100.00
70053;BME280;57398;52.032;4.376;2023-04-15T14:05:24;102207.47;;;12.21;100.00
70053;BME280;57398;52.032;4.376;2023-04-15T14:08:13;102185.72;;;12.42;100.00
70053;BME280;57398;52.032;4.376;2023-04-15T14:11:01;102192.13;;;12.46;100.00
70053;BME280;57398;52.032;4.376;2023-04-15T14:13:51;102196.06;;;12.22;100.00
70053;BME280;57398;52.032;4.376;2023-04-15T14:16:39;102205.28;;;11.83;100.00
70053;BME280;57398;52.032;4.376;2023-04-15T14:19:29;102204.78;;;11.66;100.00
70053;BME280;57398;52.032;4.376;2023-04-15T14:22:17;102215.97;;;11.88;100.00
70053;BME280;57398;52.032;4.376;2023-04-15T14:25:06;102226.13;;;11.83;100.00
70053;BME280;57398;52.032;4.376;2023-04-15T14:27:54;102226.38;;;11.88;100.00
70053;BME280;57398;52.032;4.376;2023-04-15T14:30:43;102232.44;;;12.02;100.00
70053;BME280;57398;52.032;4.376;2023-04-15T14:33:31;102259.03;;;11.62;100.00
70053;BME280;57398;52.032;4.376;2023-04-15T14:36:19;102273.38;;;11.80;100.00
70053;BME280;57398;52.032;4.376;2023-04-15T14:39:08;102285.34;;;11.24;100.00
70053;BME280;57398;52.032;4.376;2023-04-15T14:41:56;102313.66;;;11.13;100.00
70053;BME280;57398;52.032;4.376;2023-04-15T14:44:44;102307.22;;;11.08;100.00